Terminal Aerodrome Forecast
Issued by NWS

Home | Current Version | Previous Version | Graphics & Text | Print | Product List | Glossary On
Versions: 1 2 3 4 5 6 7 8 9 10 11 12 13 14 15 16 17 18 19 20 21 22 23
000
FTUS43 KGRB 242300
TAFATW
TAF
KATW 242322Z 2500/2524 28010G16KT 1SM -SN OVC007
      TEMPO 2500/2504 1/2SM SN OVC002
     FM250600 30012G18KT 3SM -SN OVC008
     FM250900 30009KT 5SM -SN OVC015
     FM251300 29008KT P6SM OVC020
     FM252000 26007KT P6SM FEW030 BKN120=

USA.gov is the U.S. government's official web portal to all federal, state and local government web resources and services.